Time;durP1;ratioP1;P1;durP2;ratioP2;P2;SDS_P1;SDS_P2;PMS_P1;PMS_P2;Temp;Humidity;BMP_temperature;BMP_pressure;BME280_temperature;BME280_humidity;BME280_pressure;Samples;Min_cycle;Max_cycle;Signal;HPM_P1;HPM_P2
2022/05/25 00:00:29;;;;;;;2.60;1.23;;;;;;;17.38;55.20;100287.59;4917032;29;20306;-66
2022/05/25 00:02:56;;;;;;;2.97;1.20;;;;;;;17.34;54.99;100288.97;4913294;29;20205;-67
2022/05/25 00:05:24;;;;;;;2.57;1.03;;;;;;;17.32;55.31;100290.22;4915764;29;20224;-67
2022/05/25 00:07:52;;;;;;;2.43;1.10;;;;;;;17.32;55.60;100290.22;4913995;29;20245;-67
2022/05/25 00:10:21;;;;;;;4.17;1.00;;;;;;;17.29;55.73;100297.63;4913301;29;20300;-67
2022/05/25 00:12:49;;;;;;;6.70;1.10;;;;;;;17.28;55.49;100306.69;4916204;29;20208;-67
2022/05/25 00:15:17;;;;;;;4.50;1.17;;;;;;;17.27;55.45;100299.66;4916902;29;20643;-68
2022/05/25 00:17:45;;;;;;;3.43;1.30;;;;;;;17.23;55.71;100303.78;4914456;29;20685;-67
2022/05/25 00:20:12;;;;;;;3.83;1.27;;;;;;;17.23;55.79;100305.63;4916554;29;20244;-68
2022/05/25 00:22:44;;;;;;;3.20;1.10;;;;;;;17.27;55.59;100298.84;4917436;29;20208;-68
2022/05/25 00:25:14;;;;;;;2.73;1.17;;;;;;;17.27;55.27;100290.78;4914409;29;20217;-67
2022/05/25 00:27:43;;;;;;;3.00;1.03;;;;;;;17.25;55.56;100301.69;4912195;29;20667;-68
2022/05/25 00:30:13;;;;;;;2.43;1.13;;;;;;;17.21;55.94;100291.59;4913919;29;20534;-67
2022/05/25 00:32:41;;;;;;;4.33;1.20;;;;;;;17.16;55.71;100291.31;4915443;29;20347;-67
2022/05/25 00:35:12;;;;;;;3.23;1.10;;;;;;;17.12;56.07;100290.06;4912307;29;20272;-67
2022/05/25 00:37:40;;;;;;;3.20;0.90;;;;;;;17.12;56.06;100285.56;4912255;29;20689;-67
2022/05/25 00:40:10;;;;;;;4.23;1.37;;;;;;;17.13;56.43;100289.06;4917465;29;20247;-66
2022/05/25 00:42:38;;;;;;;2.77;1.10;;;;;;;17.08;56.37;100284.25;4915728;29;20217;-67
2022/05/25 00:45:08;;;;;;;1.47;0.90;;;;;;;17.08;56.63;100288.78;4912653;29;20209;-66
2022/05/25 00:47:40;;;;;;;2.53;1.10;;;;;;;17.08;56.66;100288.78;4912573;29;20347;-66
2022/05/25 00:50:11;;;;;;;4.50;1.10;;;;;;;17.04;56.41;100283.00;4917348;29;20239;-66
2022/05/25 00:52:40;;;;;;;4.20;1.17;;;;;;;17.05;56.67;100286.53;4914532;29;20687;-67
2022/05/25 00:55:12;;;;;;;3.27;1.20;;;;;;;17.06;56.63;100293.53;4919064;29;20311;-67
2022/05/25 00:57:42;;;;;;;3.37;1.20;;;;;;;17.01;56.61;100295.97;4918514;29;20214;-67
2022/05/25 01:00:14;;;;;;;3.33;0.93;;;;;;;17.01;56.77;100304.00;4912321;29;20240;-66
2022/05/25 01:02:44;;;;;;;2.63;1.20;;;;;;;17.01;56.68;100312.03;4915167;29;20212;-66
2022/05/25 01:05:14;;;;;;;2.50;0.93;;;;;;;16.98;56.94;100304.38;4913409;29;20576;-66
2022/05/25 01:07:59;;;;;;;1.90;1.10;;;;;;;16.99;56.96;100303.34;4913069;29;20212;-66
2022/05/25 01:10:42;;;;;;;2.17;1.00;;;;;;;16.93;57.42;100294.25;4914175;29;20226;-67
2022/05/25 01:13:20;;;;;;;3.77;1.07;;;;;;;16.89;57.08;100301.84;4913239;29;20236;-67
2022/05/25 01:16:02;;;;;;;3.17;1.10;;;;;;;16.88;57.56;100296.69;4913149;29;20233;-67
2022/05/25 01:18:46;;;;;;;4.50;1.00;;;;;;;16.85;57.48;100305.94;4914229;29;20213;-67
2022/05/25 01:21:21;;;;;;;4.77;1.00;;;;;;;16.81;57.50;100310.00;4913148;29;20651;-66
2022/05/25 01:24:02;;;;;;;3.80;0.97;;;;;;;16.76;57.94;100307.09;4913209;29;20290;-65
2022/05/25 01:26:39;;;;;;;2.67;1.07;;;;;;;16.76;58.31;100308.94;4917697;29;20252;-65
2022/05/25 01:29:21;;;;;;;2.33;0.90;;;;;;;16.71;58.34;100314.84;4914133;29;20219;-66
2022/05/25 01:32:00;;;;;;;3.43;1.13;;;;;;;16.71;58.22;100314.03;4913059;29;20575;-66
2022/05/25 01:34:34;;;;;;;3.93;1.30;;;;;;;16.67;58.49;100318.94;4915446;29;20252;-66
2022/05/25 01:37:08;;;;;;;5.97;1.30;;;;;;;16.64;58.35;100319.31;4914167;29;20221;-67
2022/05/25 01:39:40;;;;;;;2.20;0.90;;;;;;;16.56;58.37;100316.72;4912910;29;20214;-66
2022/05/25 01:42:26;;;;;;;4.77;0.90;;;;;;;16.56;58.86;100317.56;4914277;29;20221;-66
2022/05/25 01:44:58;;;;;;;2.43;1.07;;;;;;;16.53;58.96;100322.47;4914614;29;20252;-67
2022/05/25 01:47:31;;;;;;;4.43;1.20;;;;;;;16.50;58.84;100328.22;4915819;29;20208;-67
2022/05/25 01:50:04;;;;;;;4.70;1.20;;;;;;;16.45;58.52;100319.91;4910514;29;20206;-67
2022/05/25 01:52:35;;;;;;;3.90;1.10;;;;;;;16.43;58.81;100330.81;4917658;29;20689;-66
2022/05/25 01:55:07;;;;;;;4.53;0.90;;;;;;;16.40;59.10;100320.47;4911247;29;20227;-67
2022/05/25 01:57:38;;;;;;;2.33;0.93;;;;;;;16.40;58.91;100328.50;4914609;29;20262;-67
2022/05/25 02:00:08;;;;;;;5.00;0.87;;;;;;;16.38;59.09;100335.91;4911900;29;20587;-67
2022/05/25 02:05:23;;;;;;;4.70;1.13;;;;;;;16.36;59.14;100334.44;4914737;29;20211;-67
2022/05/25 02:08:03;;;;;;;2.83;1.00;;;;;;;16.41;58.69;100335.53;4910953;29;20204;-67
2022/05/25 02:10:49;;;;;;;3.47;1.30;;;;;;;16.39;59.16;100339.41;4912928;29;20230;-66
2022/05/25 02:13:36;;;;;;;3.13;0.93;;;;;;;16.31;59.15;100336.84;4916236;29;20266;-67
2022/05/25 02:16:17;;;;;;;2.47;1.10;;;;;;;16.29;59.29;100337.03;4914994;29;20213;-66
2022/05/25 02:18:56;;;;;;;2.60;1.10;;;;;;;16.33;59.19;100342.84;4914379;29;20217;-66
2022/05/25 02:21:31;;;;;;;2.53;1.07;;;;;;;16.18;59.67;100354.38;4912629;29;20675;-66
2022/05/25 02:24:05;;;;;;;2.73;1.07;;;;;;;16.18;59.81;100361.59;4910774;29;20584;-66
2022/05/25 02:26:36;;;;;;;2.03;1.13;;;;;;;16.11;60.52;100358.81;4911935;29;20211;-67
2022/05/25 02:29:08;;;;;;;2.37;1.30;;;;;;;16.19;59.54;100364.06;4912286;29;20700;-65
2022/05/25 02:31:42;;;;;;;3.50;1.37;;;;;;;16.13;59.64;100364.81;4912091;29;20300;-66
2022/05/25 02:34:17;;;;;;;3.03;1.10;;;;;;;16.07;59.71;100360.22;4914182;29;20689;-67
2022/05/25 02:36:47;;;;;;;2.67;1.17;;;;;;;16.04;60.09;100367.78;4912816;29;20225;-66
2022/05/25 02:39:16;;;;;;;3.90;1.07;;;;;;;16.12;59.67;100373.88;4911851;29;20213;-66
2022/05/25 02:41:48;;;;;;;2.63;1.07;;;;;;;16.08;60.16;100375.28;4913204;29;20209;-65
2022/05/25 02:44:17;;;;;;;3.27;1.30;;;;;;;16.04;60.06;100373.97;4911350;29;20275;-66
2022/05/25 02:46:45;;;;;;;3.17;1.27;;;;;;;16.05;59.75;100372.13;4914641;29;20299;-65
2022/05/25 02:49:15;;;;;;;2.37;1.20;;;;;;;16.06;59.68;100369.28;4913363;29;20224;-67
2022/05/25 02:51:42;;;;;;;1.93;1.10;;;;;;;16.06;60.00;100379.13;4914942;29;20733;-67
2022/05/25 02:54:11;;;;;;;2.43;1.27;;;;;;;16.00;60.65;100378.03;4911513;29;20224;-66
2022/05/25 02:56:39;;;;;;;3.53;1.40;;;;;;;16.03;60.51;100382.16;4913037;29;20833;-66
2022/05/25 02:59:06;;;;;;;3.37;1.10;;;;;;;16.10;59.83;100375.88;4914015;29;20295;-66
2022/05/25 03:01:34;;;;;;;2.40;1.50;;;;;;;16.09;59.99;100384.97;4917136;29;20301;-66
2022/05/25 03:04:02;;;;;;;8.57;2.07;;;;;;;16.04;60.46;100379.31;4910859;29;20217;-66
2022/05/25 03:06:31;;;;;;;4.27;1.20;;;;;;;16.09;60.22;100384.97;4910837;29;20296;-66
2022/05/25 03:08:59;;;;;;;3.57;1.30;;;;;;;16.11;59.83;100382.06;4915874;29;20228;-66
2022/05/25 03:11:28;;;;;;;3.33;1.33;;;;;;;16.15;59.71;100394.91;4919477;29;20302;-66
2022/05/25 03:13:56;;;;;;;2.40;1.20;;;;;;;16.16;59.85;100399.25;4914376;29;20322;-66
2022/05/25 03:16:24;;;;;;;3.20;1.50;;;;;;;16.20;59.63;100394.31;4915504;29;20249;-66
2022/05/25 03:18:52;;;;;;;3.10;1.70;;;;;;;16.07;59.61;100392.31;4917828;29;20247;-66
2022/05/25 03:21:20;;;;;;;4.70;1.43;;;;;;;15.84;59.92;100404.09;4915609;29;20212;-66
2022/05/25 03:23:51;;;;;;;2.80;1.57;;;;;;;15.70;60.67;100395.06;4912021;29;20209;-66
2022/05/25 03:26:19;;;;;;;5.30;1.73;;;;;;;15.54;61.52;100414.78;4916808;29;21636;-66
2022/05/25 03:28:47;;;;;;;4.80;1.67;;;;;;;15.48;61.67;100393.28;4921823;29;20300;-66
2022/05/25 03:31:16;;;;;;;6.90;1.50;;;;;;;15.41;61.98;100396.66;4917055;29;20574;-66
2022/05/25 03:33:44;;;;;;;6.67;2.03;;;;;;;15.35;62.12;100408.06;4916643;29;20208;-66
2022/05/25 03:36:12;;;;;;;2.87;1.60;;;;;;;15.42;61.83;100403.66;4913816;29;20315;-66
2022/05/25 03:38:40;;;;;;;3.30;1.50;;;;;;;15.57;61.67;100410.94;4915697;29;20631;-66
2022/05/25 03:41:09;;;;;;;4.80;1.60;;;;;;;15.60;61.58;100406.03;4914523;29;20308;-66
2022/05/25 03:43:39;;;;;;;3.97;1.90;;;;;;;15.56;61.72;100411.94;4915358;29;20674;-67
2022/05/25 03:46:07;;;;;;;3.50;1.60;;;;;;;15.58;61.54;100410.72;4913833;29;20205;-65
2022/05/25 03:48:35;;;;;;;6.63;1.63;;;;;;;15.43;62.18;100417.84;4915232;29;20213;-65
2022/05/25 03:51:03;;;;;;;5.27;1.50;;;;;;;15.43;62.23;100424.03;4918371;29;20273;-66
2022/05/25 03:53:30;;;;;;;2.93;1.50;;;;;;;15.52;62.02;100418.59;4916530;29;20249;-65
2022/05/25 03:55:59;;;;;;;8.50;1.70;;;;;;;15.55;61.96;100416.44;4919653;29;20323;-67
2022/05/25 03:58:28;;;;;;;3.17;1.77;;;;;;;15.54;61.91;100427.31;4919493;29;20210;-67
2022/05/25 04:00:58;;;;;;;2.53;1.37;;;;;;;15.65;61.52;100429.56;4914684;29;20642;-67
2022/05/25 04:03:25;;;;;;;4.77;1.80;;;;;;;15.74;61.28;100429.28;4917650;29;20673;-67
2022/05/25 04:05:53;;;;;;;6.83;2.33;;;;;;;15.75;61.08;100430.94;4916728;29;20205;-67
2022/05/25 04:08:21;;;;;;;5.93;1.80;;;;;;;15.66;61.48;100431.19;4918502;29;20213;-67
2022/05/25 04:10:49;;;;;;;5.83;2.00;;;;;;;15.41;62.11;100434.06;4916215;29;20223;-67
2022/05/25 04:13:17;;;;;;;6.17;1.83;;;;;;;15.36;62.27;100433.78;4912642;29;20240;-67
2022/05/25 04:15:46;;;;;;;3.40;1.83;;;;;;;15.40;62.69;100436.91;4913329;29;20247;-67
2022/05/25 04:18:14;;;;;;;3.93;1.97;;;;;;;15.46;62.55;100438.88;4913405;29;20223;-67
2022/05/25 04:20:42;;;;;;;4.80;1.87;;;;;;;15.54;62.11;100432.66;4918834;29;20612;-66
2022/05/25 04:23:11;;;;;;;4.00;1.70;;;;;;;15.62;61.80;100443.28;4915782;29;20618;-66
2022/05/25 04:25:41;;;;;;;7.77;2.17;;;;;;;15.65;61.82;100440.25;4915491;29;20849;-65
2022/05/25 04:28:09;;;;;;;4.53;2.53;;;;;;;15.61;61.43;100441.63;4914780;29;20216;-67
2022/05/25 04:30:37;;;;;;;4.73;1.87;;;;;;;15.59;61.48;100448.97;4913561;29;20217;-67
2022/05/25 04:33:06;;;;;;;5.13;1.73;;;;;;;15.56;61.50;100452.03;4914783;29;20473;-67
2022/05/25 04:35:34;;;;;;;4.90;1.83;;;;;;;15.63;61.10;100450.28;4913691;29;20705;-66
2022/05/25 04:38:02;;;;;;;6.73;2.00;;;;;;;15.67;60.77;100448.91;4914382;29;20216;-66
2022/05/25 04:40:31;;;;;;;4.13;1.80;;;;;;;15.67;60.86;100459.59;4915029;29;20303;-66
2022/05/25 04:43:03;;;;;;;8.17;2.83;;;;;;;15.64;61.36;100460.81;4917693;29;20237;-66
2022/05/25 04:45:34;;;;;;;3.33;1.63;;;;;;;15.61;61.21;100465.66;4918001;29;20575;-67
2022/05/25 04:48:02;;;;;;;4.47;1.97;;;;;;;15.64;60.96;100460.81;4912720;29;20235;-67
2022/05/25 04:50:35;;;;;;;6.27;2.03;;;;;;;15.64;61.31;100470.66;4915421;29;20284;-66
2022/05/25 04:53:04;;;;;;;4.00;1.90;;;;;;;15.66;61.44;100468.63;4911301;29;20316;-66
2022/05/25 04:58:19;;;;;;;4.97;1.90;;;;;;;15.76;61.03;100478.03;4919308;29;20217;-66
2022/05/25 05:00:46;;;;;;;2.70;1.77;;;;;;;15.77;61.11;100481.56;4918640;29;20223;-66
2022/05/25 05:03:19;;;;;;;4.27;1.90;;;;;;;15.86;60.89;100485.81;4912233;29;20311;-68
2022/05/25 05:05:49;;;;;;;3.97;1.90;;;;;;;15.91;60.54;100494.13;4912147;29;20213;-67
2022/05/25 05:08:21;;;;;;;7.97;2.30;;;;;;;15.96;60.37;100497.09;4916000;29;20241;-67
2022/05/25 05:10:49;;;;;;;6.20;2.20;;;;;;;15.99;60.72;100512.78;4913779;29;20215;-66
2022/05/25 05:13:17;;;;;;;6.83;2.13;;;;;;;15.96;60.70;100513.13;4913694;29;20320;-67
2022/05/25 05:15:50;;;;;;;8.37;2.20;;;;;;;15.94;60.76;100511.63;4912402;29;20304;-67
2022/05/25 05:18:19;;;;;;;4.83;2.40;;;;;;;15.92;60.85;100511.00;4914560;29;20299;-67
2022/05/25 05:20:53;;;;;;;6.37;2.60;;;;;;;15.91;61.12;100518.22;4913506;29;20929;-66
2022/05/25 05:23:21;;;;;;;6.47;2.87;;;;;;;15.93;61.07;100521.50;4910149;29;20247;-67
2022/05/25 05:25:49;;;;;;;5.53;2.83;;;;;;;15.96;61.11;100523.81;4913909;29;20217;-66
2022/05/25 05:28:20;;;;;;;5.20;2.23;;;;;;;16.03;60.91;100524.75;4916242;29;20234;-67
2022/05/25 05:30:50;;;;;;;6.23;2.37;;;;;;;16.04;60.67;100523.75;4917542;29;20729;-66
2022/05/25 05:33:21;;;;;;;5.23;2.37;;;;;;;16.07;60.32;100535.94;4914863;29;20215;-66
2022/05/25 05:35:55;;;;;;;6.23;2.20;;;;;;;16.03;60.90;100535.44;4910353;29;20237;-66
2022/05/25 05:38:23;;;;;;;7.33;2.37;;;;;;;16.05;61.10;100525.41;4912369;29;20235;-68
2022/05/25 05:40:52;;;;;;;6.70;2.70;;;;;;;16.13;60.52;100529.84;4912781;29;20637;-67
2022/05/25 05:43:21;;;;;;;9.57;2.87;;;;;;;16.16;61.13;100532.16;4913201;29;20216;-67
2022/05/25 05:45:51;;;;;;;7.10;2.63;;;;;;;16.16;60.82;100530.31;4915156;29;20217;-67
2022/05/25 05:48:24;;;;;;;5.37;2.57;;;;;;;16.16;60.74;100541.03;4914976;29;20276;-67
2022/05/25 05:50:58;;;;;;;7.23;2.37;;;;;;;16.21;60.78;100542.31;4914828;29;20718;-67
2022/05/25 05:53:28;;;;;;;5.47;2.57;;;;;;;16.27;60.31;100552.31;4915745;29;20217;-67
2022/05/25 05:55:58;;;;;;;5.10;2.20;;;;;;;16.30;60.50;100552.75;4913074;29;20233;-67
2022/05/25 05:58:26;;;;;;;6.20;2.80;;;;;;;16.35;60.50;100557.56;4916115;29;20232;-67
2022/05/25 06:00:54;;;;;;;9.40;3.20;;;;;;;16.38;60.51;100559.84;4913216;29;20211;-67
2022/05/25 06:03:22;;;;;;;5.07;2.83;;;;;;;16.38;60.96;100562.53;4914166;29;20252;-67
2022/05/25 06:05:49;;;;;;;7.07;2.57;;;;;;;16.29;61.48;100560.94;4912964;29;20315;-67
2022/05/25 06:08:21;;;;;;;5.03;2.47;;;;;;;16.39;61.44;100566.88;4914452;29;20276;-67
2022/05/25 06:10:48;;;;;;;7.57;2.67;;;;;;;16.42;61.26;100566.50;4916786;29;20252;-66
2022/05/25 06:13:16;;;;;;;5.53;2.50;;;;;;;16.51;61.32;100565.41;4913136;29;20232;-66
2022/05/25 06:21:19;;;;;;;6.40;2.67;;;;;;;16.77;59.47;100573.00;4910653;29;20303;-66
2022/05/25 06:23:51;;;;;;;4.87;2.10;;;;;;;16.79;59.83;100570.97;4911662;29;20223;-66
2022/05/25 06:26:19;;;;;;;5.00;2.70;;;;;;;16.84;59.41;100574.75;4912649;29;20217;-67
2022/05/25 06:28:47;;;;;;;9.97;2.57;;;;;;;17.03;59.08;100583.22;4911848;29;20223;-67
2022/05/25 06:31:15;;;;;;;10.17;2.83;;;;;;;17.09;58.24;100582.47;4912387;29;20204;-66
2022/05/25 06:33:43;;;;;;;6.33;2.60;;;;;;;17.17;58.29;100582.38;4917154;29;20628;-67
2022/05/25 06:36:17;;;;;;;3.77;1.90;;;;;;;17.20;58.20;100587.34;4910965;29;20285;-67
2022/05/25 06:38:45;;;;;;;5.40;2.13;;;;;;;17.26;57.75;100591.94;4908845;29;20324;-67
2022/05/25 06:41:14;;;;;;;3.40;1.80;;;;;;;17.32;56.51;100591.22;4920166;29;20231;-66
2022/05/25 06:43:43;;;;;;;4.38;1.75;;;;;;;17.56;55.98;100588.19;4923424;29;20458;-68
2022/05/25 06:46:12;;;;;;;3.57;1.57;;;;;;;17.53;56.01;100593.91;4922514;29;20205;-68
2022/05/25 06:48:48;;;;;;;5.30;2.10;;;;;;;17.56;55.74;100590.03;4924349;29;20411;-68
2022/05/25 06:51:20;;;;;;;4.47;1.83;;;;;;;17.56;55.90;100596.22;4923822;29;20209;-68
2022/05/25 06:53:49;;;;;;;6.30;2.10;;;;;;;17.60;55.67;100602.84;4919609;29;20589;-68
2022/05/25 06:56:19;;;;;;;4.70;1.80;;;;;;;17.71;55.21;100600.72;4914576;29;20682;-68
2022/05/25 06:58:47;;;;;;;6.80;1.63;;;;;;;17.75;54.89;100599.34;4920641;29;20264;-68
2022/05/25 07:01:15;;;;;;;5.53;1.93;;;;;;;17.84;54.71;100598.19;4914401;29;20213;-68
2022/05/25 07:03:43;;;;;;;3.97;1.50;;;;;;;17.82;53.96;100609.09;4915953;29;20212;-68
2022/05/25 07:06:13;;;;;;;5.50;1.47;;;;;;;17.86;53.74;100606.84;4914292;29;20647;-67
2022/05/25 07:08:41;;;;;;;7.63;1.60;;;;;;;17.92;53.84;100616.81;4913836;29;20217;-69
2022/05/25 07:11:11;;;;;;;2.73;1.33;;;;;;;17.97;53.55;100609.03;4920477;29;20219;-71
2022/05/25 07:13:45;;;;;;;2.73;1.30;;;;;;;18.05;53.35;100617.75;4919227;29;20263;-71
2022/05/25 07:16:16;;;;;;;7.00;1.50;;;;;;;18.18;52.72;100614.38;4919172;29;20682;-68
2022/05/25 07:18:46;;;;;;;5.97;1.60;;;;;;;18.19;52.96;100615.22;4914961;29;20687;-68
2022/05/25 07:21:16;;;;;;;4.13;1.37;;;;;;;18.25;53.33;100611.75;4917794;29;20264;-68
2022/05/25 07:23:46;;;;;;;5.33;1.30;;;;;;;18.23;53.65;100617.28;4921679;29;20205;-67
2022/05/25 07:26:14;;;;;;;3.67;1.23;;;;;;;18.27;52.32;100615.91;4919438;29;20263;-67
2022/05/25 07:28:43;;;;;;;3.73;1.17;;;;;;;18.35;52.35;100621.13;4916230;29;20234;-68
2022/05/25 07:31:18;;;;;;;3.90;1.70;;;;;;;18.39;52.09;100617.00;4919174;29;20219;-68
2022/05/25 07:33:54;;;;;;;3.23;1.40;;;;;;;18.42;51.79;100618.47;4916272;29;20476;-68
2022/05/25 07:36:24;;;;;;;4.77;1.33;;;;;;;18.40;51.43;100618.66;4916407;29;20683;-68
2022/05/25 07:38:57;;;;;;;4.00;1.50;;;;;;;18.52;50.44;100615.44;4915211;29;20311;-68
2022/05/25 07:41:26;;;;;;;3.20;1.40;;;;;;;18.53;51.18;100611.75;4918097;29;20213;-69
2022/05/25 07:43:58;;;;;;;2.43;0.93;;;;;;;18.67;50.29;100624.25;4919076;29;20704;-67
2022/05/25 07:46:27;;;;;;;3.47;1.17;;;;;;;18.66;51.39;100619.91;4918080;29;20227;-65
2022/05/25 07:48:56;;;;;;;7.37;1.60;;;;;;;18.73;51.13;100612.75;4916111;29;20510;-67
2022/05/25 07:51:26;;;;;;;8.10;1.30;;;;;;;18.73;50.56;100623.47;4913766;29;20298;-67
2022/05/25 07:53:57;;;;;;;3.73;1.00;;;;;;;18.88;49.77;100624.19;4916290;29;20709;-66
2022/05/25 07:56:29;;;;;;;3.30;0.80;;;;;;;18.97;48.59;100625.69;4916448;29;20236;-66
2022/05/25 07:58:59;;;;;;;3.13;1.10;;;;;;;19.12;48.91;100629.06;4914833;29;20295;-67
2022/05/25 08:07:06;;;;;;;2.40;0.90;;;;;;;19.37;47.97;100620.47;4912455;29;20721;-67
2022/05/25 08:09:34;;;;;;;1.83;0.67;;;;;;;19.47;48.29;100632.53;4921742;29;20214;-66
2022/05/25 08:12:05;;;;;;;2.43;0.60;;;;;;;19.57;47.61;100629.47;4916555;29;20260;-66
2022/05/25 08:14:34;;;;;;;1.87;0.80;;;;;;;19.65;46.76;100625.75;4913538;29;20592;-66
2022/05/25 08:17:02;;;;;;;5.63;1.03;;;;;;;19.71;45.79;100633.00;4910890;29;20749;-66
2022/05/25 08:19:30;;;;;;;0.77;0.40;;;;;;;19.75;45.60;100629.72;4918927;29;20238;-65
2022/05/25 08:21:58;;;;;;;2.33;0.80;;;;;;;19.78;46.09;100626.63;4919018;29;20272;-66
2022/05/25 08:24:26;;;;;;;5.80;1.13;;;;;;;19.77;45.37;100630.34;4916692;29;20296;-65
2022/05/25 08:26:54;;;;;;;5.50;0.90;;;;;;;19.74;44.58;100632.59;4918153;29;20722;-65
2022/05/25 08:29:24;;;;;;;4.27;0.80;;;;;;;19.90;45.24;100629.53;4922078;29;20209;-65
2022/05/25 08:31:55;;;;;;;2.43;0.50;;;;;;;20.00;44.53;100626.44;4917068;29;20257;-65
2022/05/25 08:34:23;;;;;;;4.57;0.90;;;;;;;20.13;45.01;100629.97;4921720;29;20254;-65
2022/05/25 08:36:51;;;;;;;1.73;0.53;;;;;;;20.24;42.93;100623.13;4915270;29;20244;-65
2022/05/25 08:39:19;;;;;;;2.23;0.60;;;;;;;20.33;43.57;100626.44;4922253;29;20241;-66
2022/05/25 08:41:51;;;;;;;2.27;0.50;;;;;;;20.35;43.33;100622.53;4919976;29;20341;-65
2022/05/25 08:44:23;;;;;;;1.10;0.40;;;;;;;20.52;42.26;100607.59;4917442;29;20300;-66
2022/05/25 08:46:55;;;;;;;1.83;0.57;;;;;;;20.55;43.70;100620.66;4919013;29;20223;-66
2022/05/25 08:49:24;;;;;;;1.60;0.40;;;;;;;20.71;43.39;100615.84;4918880;29;20276;-66
2022/05/25 08:51:55;;;;;;;2.33;0.50;;;;;;;20.83;43.36;100611.50;4922319;29;20299;-65
2022/05/25 08:54:26;;;;;;;2.60;0.50;;;;;;;20.95;43.15;100620.56;4915864;29;20247;-65
2022/05/25 08:56:57;;;;;;;3.47;0.53;;;;;;;21.01;42.79;100623.25;4922991;29;20707;-65
2022/05/25 08:59:33;;;;;;;3.63;0.70;;;;;;;20.91;42.40;100619.34;4928839;29;20279;-65
2022/05/25 09:02:12;;;;;;;1.97;0.40;;;;;;;20.76;41.68;100616.06;4914268;29;20213;-67
2022/05/25 09:04:49;;;;;;;4.93;0.63;;;;;;;20.78;42.13;100613.97;4918176;29;20219;-68
2022/05/25 09:07:25;;;;;;;5.60;0.40;;;;;;;20.67;41.41;100618.97;4914059;29;20236;-69
2022/05/25 09:09:54;;;;;;;2.53;0.50;;;;;;;20.75;41.63;100620.63;4911395;29;20283;-68
2022/05/25 09:12:27;;;;;;;1.07;0.57;;;;;;;20.78;41.42;100625.59;4913576;29;20227;-68
2022/05/25 09:14:59;;;;;;;2.10;0.60;;;;;;;20.78;41.50;100627.44;4910332;29;20251;-68
2022/05/25 09:17:32;;;;;;;4.07;0.40;;;;;;;20.65;42.10;100626.44;4910905;29;20209;-69
2022/05/25 09:20:10;;;;;;;;;;;;;;;;;;;;;
2022/05/25 09:22:39;;;;;;;2.10;0.50;;;;;;;20.45;42.28;100631.03;4913619;29;20213;-68
2022/05/25 09:25:09;;;;;;;2.53;0.70;;;;;;;20.32;42.07;100631.00;4913783;29;20209;-69
2022/05/25 09:27:58;;;;;;;6.70;0.77;;;;;;;20.31;42.26;100621.28;5056083;28;20572;-67
2022/05/25 09:30:26;;;;;;;1.73;0.50;;;;;;;20.28;41.41;100621.69;5061775;28;20205;-68
2022/05/25 09:33:01;;;;;;;1.80;0.40;;;;;;;20.35;41.62;100619.84;5059091;28;20265;-68
2022/05/25 09:35:32;;;;;;;2.33;0.63;;;;;;;20.43;41.54;100630.41;5057493;28;20210;-68
2022/05/25 09:38:04;;;;;;;2.87;0.40;;;;;;;20.36;41.42;100626.88;5054377;28;20230;-67
2022/05/25 09:40:34;;;;;;;2.80;0.70;;;;;;;20.31;42.14;100615.06;5052902;28;20391;-67
2022/05/25 09:43:05;;;;;;;4.00;0.90;;;;;;;20.35;41.73;100617.16;5050278;28;20211;-68
2022/05/25 09:45:40;;;;;;;3.57;0.70;;;;;;;20.37;41.48;100617.78;5049574;28;20583;-68
2022/05/25 09:48:15;;;;;;;2.70;0.50;;;;;;;20.33;41.97;100621.88;5065921;28;20249;-67
2022/05/25 09:50:45;;;;;;;1.60;0.50;;;;;;;20.34;42.42;100623.56;5051034;28;20577;-68
2022/05/25 09:53:17;;;;;;;3.70;0.50;;;;;;;20.43;42.38;100626.88;5053178;28;20231;-68
2022/05/25 09:55:50;;;;;;;2.10;0.70;;;;;;;20.45;41.53;100625.63;5057797;28;20317;-68
2022/05/25 09:58:30;;;;;;;3.57;0.50;;;;;;;20.52;42.10;100626.47;5055726;28;20207;-68
2022/05/25 10:01:02;;;;;;;1.97;0.60;;;;;;;20.60;42.02;100628.94;5055170;28;20207;-68
2022/05/25 10:03:40;;;;;;;1.70;0.70;;;;;;;20.76;41.55;100624.97;5058432;28;20202;-68
2022/05/25 10:06:23;;;;;;;3.87;0.70;;;;;;;20.91;41.13;100616.66;5064530;28;20655;-68
2022/05/25 10:09:06;;;;;;;4.73;1.00;;;;;;;21.01;41.02;100619.72;5074211;28;21814;-68
2022/05/25 10:11:42;;;;;;;1.90;0.60;;;;;;;21.28;40.20;100621.31;5055282;28;20207;-68
2022/05/25 10:14:25;;;;;;;1.23;0.47;;;;;;;21.46;40.91;100617.09;5049970;28;20652;-68
2022/05/25 10:16:55;;;;;;;2.67;0.60;;;;;;;21.63;40.12;100615.53;5047899;28;20209;-68
2022/05/25 10:19:24;;;;;;;3.03;0.70;;;;;;;21.71;38.53;100612.56;5053058;28;20208;-69
2022/05/25 10:21:54;;;;;;;1.33;0.53;;;;;;;21.93;39.17;100613.03;5048596;28;20214;-68
2022/05/25 10:24:27;;;;;;;2.70;0.87;;;;;;;21.99;38.62;100613.00;5053213;28;20204;-68
2022/05/25 10:26:58;;;;;;;3.77;0.90;;;;;;;22.12;38.99;100607.53;5047873;28;20602;-68
2022/05/25 10:37:59;;;;;;;1.60;0.45;;;;;;;22.66;35.87;100608.69;5042915;28;20205;-68
2022/05/25 10:40:28;;;;;;;5.45;0.70;;;;;;;22.70;36.55;100607.16;5039301;28;20657;-67
2022/05/25 10:43:00;;;;;;;1.98;0.40;;;;;;;22.75;35.83;100596.56;5047704;28;20224;-66
2022/05/25 10:45:36;;;;;;;1.55;0.50;;;;;;;22.81;35.39;100606.47;5039902;28;20279;-68
2022/05/25 10:48:12;;;;;;;3.95;0.85;;;;;;;22.80;35.76;100596.69;5037554;28;20216;-67
2022/05/25 10:50:50;;;;;;;2.47;0.50;;;;;;;22.96;36.02;100610.66;5036320;28;20235;-69
2022/05/25 10:54:44;;;;;;;0.93;0.30;;;;;;;23.05;34.69;100602.03;5033303;28;20303;-69
2022/05/25 10:56:46;;;;;;;1.30;0.55;;;;;;;23.14;34.17;100599.84;5034229;28;20287;-69
2022/05/25 10:59:21;;;;;;;2.38;0.90;;;;;;;23.08;34.00;100601.59;5032858;28;20993;-69
2022/05/25 11:02:12;;;;;;;1.42;0.45;;;;;;;23.05;33.25;100606.59;5035734;28;20204;-69
2022/05/25 11:05:00;;;;;;;2.05;0.75;;;;;;;22.76;33.34;100600.91;5037518;28;20230;-69
2022/05/25 11:07:33;;;;;;;2.13;0.93;;;;;;;22.72;33.48;100605.06;5039925;28;20671;-67
2022/05/25 11:10:35;;;;;;;3.25;0.68;;;;;;;22.91;33.06;100599.72;5040787;28;20205;-68
2022/05/25 11:13:21;;;;;;;1.65;0.60;;;;;;;23.14;34.13;100589.84;5033743;28;20236;-68
2022/05/25 11:15:58;;;;;;;1.80;0.60;;;;;;;23.31;34.49;100591.94;5035887;28;20268;-68
2022/05/25 11:18:41;;;;;;;4.55;0.70;;;;;;;23.58;32.98;100588.66;5034686;28;20249;-68
2022/05/25 11:21:22;;;;;;;1.10;0.43;;;;;;;23.68;33.86;100601.63;5035697;28;20205;-68
2022/05/25 11:24:10;;;;;;;1.88;0.50;;;;;;;23.73;33.40;100590.13;5035548;28;20208;-68
2022/05/25 11:26:52;;;;;;;2.15;0.60;;;;;;;23.83;32.91;100593.94;5034228;28;20586;-68
2022/05/25 11:29:36;;;;;;;3.63;0.40;;;;;;;23.91;31.42;100600.88;5040803;28;20208;-70
2022/05/25 11:32:13;;;;;;;3.15;0.60;;;;;;;23.97;31.76;100595.34;5043228;28;20295;-71
2022/05/25 11:34:56;;;;;;;2.30;0.55;;;;;;;24.11;31.27;100595.13;5040326;28;20239;-71
2022/05/25 11:37:40;;;;;;;1.30;0.40;;;;;;;24.19;31.79;100595.59;5040597;28;20212;-71
2022/05/25 11:40:22;;;;;;;2.15;0.90;;;;;;;24.21;31.04;100598.13;5037797;28;20237;-71
2022/05/25 11:43:04;;;;;;;2.08;0.50;;;;;;;24.14;30.73;100594.66;5044577;28;20227;-71
2022/05/25 11:45:47;;;;;;;2.03;0.70;;;;;;;23.92;30.86;100597.13;5040269;28;20204;-70
2022/05/25 11:48:49;;;;;;;1.08;0.52;;;;;;;23.85;31.12;100591.78;5035367;28;20657;-71
2022/05/25 11:51:24;;;;;;;1.95;0.50;;;;;;;23.90;31.16;100596.53;5039219;28;20637;-72
2022/05/25 11:54:15;;;;;;;3.03;0.60;;;;;;;23.82;31.77;100607.69;5043408;28;20213;-71
2022/05/25 11:57:06;;;;;;;2.35;0.70;;;;;;;23.88;31.41;100604.88;5039234;28;20212;-72
2022/05/25 12:00:04;;;;;;;3.30;0.40;;;;;;;23.93;31.07;100604.16;5037024;28;20205;-72
2022/05/25 12:02:51;;;;;;;2.70;0.50;;;;;;;24.06;30.68;100586.88;5037110;28;20254;-71
2022/05/25 12:05:31;;;;;;;1.20;0.43;;;;;;;23.61;31.23;100596.31;5036051;28;20209;-72
2022/05/25 12:08:12;;;;;;;0.60;0.30;;;;;;;23.63;31.74;100596.94;5035478;28;20229;-71
2022/05/25 12:10:43;;;;;;;4.97;0.70;;;;;;;23.67;32.28;100593.72;5034275;28;20583;-71
2022/05/25 12:13:21;;;;;;;2.38;0.65;;;;;;;23.65;33.12;100604.00;5036198;28;20250;-69
2022/05/25 12:15:56;;;;;;;1.70;0.60;;;;;;;23.71;33.18;100594.94;5033737;28;20208;-69